Time;durP1;ratioP1;P1;durP2;ratioP2;P2;SDS_P1;SDS_P2;PMS_P1;PMS_P2;Temp;Humidity;BMP_temperature;BMP_pressure;BME280_temperature;BME280_humidity;BME280_pressure;Samples;Min_cycle;Max_cycle;Signal;HPM_P1;HPM_P2
2021/01/16 00:01:42;;;;;;;9.03;6.10;;;1.10;99.90;;;;;;4995728;28;20655;-69
2021/01/16 00:04:29;;;;;;;7.93;6.03;;;1.00;99.90;;;;;;4979829;28;20632;-69
2021/01/16 00:07:14;;;;;;;7.60;6.07;;;1.10;99.90;;;;;;5001772;28;20680;-67
2021/01/16 00:09:58;;;;;;;9.30;5.83;;;1.10;99.90;;;;;;4996756;28;21289;-68
2021/01/16 00:12:50;;;;;;;9.10;6.23;;;1.10;99.90;;;;;;4997014;28;20628;-69
2021/01/16 00:15:35;;;;;;;7.70;5.93;;;1.00;99.90;;;;;;4992466;28;20675;-69
2021/01/16 00:18:22;;;;;;;9.10;5.90;;;1.10;99.90;;;;;;4969287;28;21043;-68
2021/01/16 00:21:06;;;;;;;8.00;5.57;;;1.00;99.90;;;;;;4976778;28;20640;-68
2021/01/16 00:23:50;;;;;;;7.90;5.83;;;1.00;99.90;;;;;;4982962;28;20623;-68
2021/01/16 00:26:35;;;;;;;7.97;6.03;;;1.10;99.90;;;;;;5003256;28;20700;-68
2021/01/16 00:29:19;;;;;;;7.33;6.37;;;1.10;99.90;;;;;;4980043;28;20599;-69
2021/01/16 00:32:05;;;;;;;7.53;5.97;;;1.10;99.90;;;;;;4997524;28;20582;-68
2021/01/16 00:34:49;;;;;;;7.37;5.70;;;1.20;99.90;;;;;;5002155;28;20639;-67
2021/01/16 00:37:34;;;;;;;8.30;6.70;;;1.10;99.90;;;;;;5003382;28;20833;-69
2021/01/16 00:40:21;;;;;;;7.47;5.47;;;1.00;99.90;;;;;;4981720;28;20717;-68
2021/01/16 00:43:08;;;;;;;7.70;6.20;;;1.00;99.90;;;;;;4972988;28;20612;-68
2021/01/16 00:45:52;;;;;;;7.67;6.23;;;1.00;99.90;;;;;;4985081;28;20628;-66
2021/01/16 00:48:39;;;;;;;8.10;6.30;;;0.90;99.90;;;;;;4993418;28;20959;-68
2021/01/16 00:51:24;;;;;;;7.90;5.93;;;0.90;99.90;;;;;;4972119;28;20752;-69
2021/01/16 00:54:08;;;;;;;6.97;5.27;;;0.80;99.90;;;;;;4992639;28;21134;-68
2021/01/16 00:56:52;;;;;;;7.70;6.20;;;0.90;99.90;;;;;;4981530;28;20656;-69
2021/01/16 00:59:37;;;;;;;8.87;6.20;;;0.90;99.90;;;;;;4975650;28;20729;-67
2021/01/16 01:02:22;;;;;;;6.67;5.30;;;1.00;99.90;;;;;;4989974;28;20645;-67
2021/01/16 01:05:09;;;;;;;8.50;5.67;;;1.00;99.90;;;;;;4986277;28;20696;-67
2021/01/16 01:10:46;;;;;;;9.37;6.77;;;0.90;99.90;;;;;;4968243;28;20652;-71
2021/01/16 01:13:35;;;;;;;10.37;6.30;;;0.90;99.90;;;;;;4881999;28;20597;-71
2021/01/16 01:16:20;;;;;;;7.17;5.80;;;0.90;99.90;;;;;;4976394;28;20593;-71
2021/01/16 01:19:05;;;;;;;6.53;5.43;;;0.90;99.90;;;;;;4965672;28;20651;-74
2021/01/16 01:21:49;;;;;;;6.30;5.37;;;0.90;99.90;;;;;;4965608;28;20981;-73
2021/01/16 01:24:34;;;;;;;7.70;5.90;;;0.80;99.90;;;;;;4971671;28;20652;-73
2021/01/16 01:27:18;;;;;;;7.20;5.53;;;0.90;99.90;;;;;;4966472;28;20890;-73
2021/01/16 01:30:06;;;;;;;7.60;6.10;;;1.00;99.90;;;;;;4960942;28;20643;-73
2021/01/16 01:32:52;;;;;;;7.10;5.90;;;0.90;99.90;;;;;;4962069;28;20586;-73
2021/01/16 01:35:37;;;;;;;7.10;6.23;;;0.60;99.90;;;;;;4962160;28;20683;-74
2021/01/16 01:38:22;;;;;;;8.57;6.40;;;0.80;99.90;;;;;;4964003;28;20777;-74
2021/01/16 01:41:07;;;;;;;8.83;6.00;;;0.80;99.90;;;;;;4967168;28;20980;-74
2021/01/16 01:43:51;;;;;;;7.60;5.87;;;0.80;99.90;;;;;;4971078;28;20714;-74
2021/01/16 01:46:36;;;;;;;6.87;5.40;;;0.80;99.90;;;;;;4970950;28;20720;-74
2021/01/16 01:49:21;;;;;;;8.13;5.33;;;0.90;99.90;;;;;;4975133;28;20660;-74
2021/01/16 01:52:06;;;;;;;6.90;5.50;;;0.90;99.90;;;;;;4967111;28;20616;-74
2021/01/16 01:54:52;;;;;;;8.17;5.90;;;0.90;99.90;;;;;;4964851;28;21194;-74
2021/01/16 01:57:39;;;;;;;8.73;5.73;;;0.80;99.90;;;;;;4970212;28;20787;-74
2021/01/16 02:00:24;;;;;;;6.47;5.60;;;0.80;99.90;;;;;;4974852;28;21235;-74
2021/01/16 02:03:11;;;;;;;5.77;4.83;;;0.80;99.90;;;;;;4963224;28;20747;-74
2021/01/16 02:05:56;;;;;;;6.80;5.60;;;0.80;99.90;;;;;;4981581;28;20982;-74
2021/01/16 02:08:42;;;;;;;8.40;5.80;;;0.80;99.90;;;;;;4963597;28;20767;-74
2021/01/16 02:11:29;;;;;;;8.33;6.23;;;0.50;99.90;;;;;;4976564;28;20740;-74
2021/01/16 02:14:14;;;;;;;6.20;5.27;;;0.80;99.90;;;;;;4975185;28;20608;-73
2021/01/16 02:17:04;;;;;;;5.90;4.80;;;0.80;99.90;;;;;;4963384;28;20656;-73
2021/01/16 02:20:09;;;;;;;7.77;5.83;;;0.90;99.90;;;;;;4973077;28;20649;-73
2021/01/16 02:22:56;;;;;;;6.77;5.70;;;1.00;99.90;;;;;;4967903;28;20759;-74
2021/01/16 02:25:43;;;;;;;7.80;5.27;;;1.10;99.90;;;;;;4970040;28;20644;-73
2021/01/16 02:28:34;;;;;;;6.47;5.07;;;1.10;99.90;;;;;;4986452;28;21190;-73
2021/01/16 02:31:19;;;;;;;6.17;5.30;;;1.10;99.90;;;;;;4961504;28;20624;-73
2021/01/16 02:34:06;;;;;;;7.20;5.40;;;0.90;99.90;;;;;;4979735;28;21142;-74
2021/01/16 02:37:33;;;;;;;6.80;5.50;;;1.00;99.90;;;;;;4967657;28;21217;-74
2021/01/16 02:40:33;;;;;;;7.83;5.93;;;1.10;99.90;;;;;;4961415;28;20684;-74
2021/01/16 02:43:35;;;;;;;6.33;5.50;;;1.10;99.90;;;;;;4962184;28;20953;-73
2021/01/16 02:46:34;;;;;;;7.50;5.77;;;1.00;99.90;;;;;;4969092;28;20651;-73
2021/01/16 02:49:41;;;;;;;7.63;5.90;;;0.90;99.90;;;;;;4970844;28;21230;-74
2021/01/16 02:52:38;;;;;;;6.30;5.27;;;1.00;99.90;;;;;;4977724;28;21000;-73
2021/01/16 02:55:22;;;;;;;7.00;5.50;;;1.00;99.90;;;;;;4969999;28;20666;-73
2021/01/16 02:58:07;;;;;;;6.47;5.20;;;0.90;99.90;;;;;;4968367;28;21077;-73
2021/01/16 03:00:52;;;;;;;7.30;5.70;;;0.90;99.90;;;;;;4974697;28;20645;-73
2021/01/16 03:03:39;;;;;;;6.90;5.50;;;1.00;99.90;;;;;;4961431;28;21195;-73
2021/01/16 03:06:24;;;;;;;7.37;6.30;;;0.90;99.90;;;;;;4970476;28;20639;-74
2021/01/16 03:09:09;;;;;;;7.60;5.83;;;1.00;99.90;;;;;;4968581;28;21367;-73
2021/01/16 03:11:55;;;;;;;6.70;5.83;;;1.10;99.90;;;;;;4963982;28;20636;-73
2021/01/16 03:14:54;;;;;;;6.90;6.20;;;1.00;99.90;;;;;;4969820;28;20713;-73
2021/01/16 03:17:47;;;;;;;8.50;6.00;;;0.90;99.90;;;;;;4970512;28;20781;-73
2021/01/16 03:20:31;;;;;;;7.27;5.97;;;1.00;99.90;;;;;;4973765;28;20804;-74
2021/01/16 03:23:16;;;;;;;7.53;5.33;;;1.00;99.90;;;;;;4960187;28;21192;-73
2021/01/16 03:26:01;;;;;;;7.87;5.27;;;0.90;99.90;;;;;;4977206;28;20629;-73
2021/01/16 03:28:47;;;;;;;7.03;5.80;;;1.00;99.90;;;;;;4964829;28;20652;-73
2021/01/16 03:31:32;;;;;;;8.13;6.20;;;0.90;99.90;;;;;;4967574;28;21317;-73
2021/01/16 03:34:16;;;;;;;8.23;6.00;;;0.90;99.90;;;;;;4968110;28;20766;-73
2021/01/16 03:37:01;;;;;;;7.70;5.73;;;1.00;99.90;;;;;;4984564;28;20612;-73
2021/01/16 03:39:45;;;;;;;6.90;5.67;;;0.90;99.90;;;;;;4966251;28;20641;-73
2021/01/16 03:42:30;;;;;;;8.27;5.87;;;0.90;99.90;;;;;;4983220;28;20704;-73
2021/01/16 03:45:20;;;;;;;9.40;6.60;;;0.90;99.90;;;;;;4987928;28;21233;-74
2021/01/16 03:48:10;;;;;;;7.87;6.13;;;0.80;99.90;;;;;;4974401;28;20620;-73
2021/01/16 03:50:54;;;;;;;7.30;6.10;;;0.90;99.90;;;;;;4975904;28;20624;-73
2021/01/16 03:53:42;;;;;;;7.50;5.80;;;0.90;99.90;;;;;;4969438;28;20670;-73
2021/01/16 03:56:26;;;;;;;8.50;5.70;;;1.00;99.90;;;;;;4976867;28;20648;-74
2021/01/16 03:59:11;;;;;;;6.90;5.60;;;1.00;99.90;;;;;;4967051;28;21033;-73
2021/01/16 04:01:55;;;;;;;7.33;5.50;;;1.00;99.90;;;;;;4964594;28;20737;-73
2021/01/16 04:04:40;;;;;;;8.87;6.33;;;1.00;99.90;;;;;;4975002;28;20629;-72
2021/01/16 04:07:24;;;;;;;8.00;6.30;;;1.00;99.90;;;;;;4967379;28;20659;-72
2021/01/16 04:10:09;;;;;;;7.83;6.23;;;1.10;99.90;;;;;;4966424;28;20675;-72
2021/01/16 04:12:54;;;;;;;8.87;6.73;;;0.90;99.90;;;;;;4968021;28;20703;-72
2021/01/16 04:15:38;;;;;;;7.90;6.23;;;1.00;99.90;;;;;;4977770;28;20582;-72
2021/01/16 04:18:23;;;;;;;7.17;5.87;;;1.10;99.90;;;;;;4968234;28;20666;-72
2021/01/16 04:21:12;;;;;;;8.60;6.37;;;1.00;99.90;;;;;;4975437;28;20720;-72
2021/01/16 04:23:56;;;;;;;8.20;6.10;;;1.10;99.90;;;;;;4963388;28;20744;-72
2021/01/16 04:26:41;;;;;;;9.93;6.23;;;1.10;99.90;;;;;;4957449;28;21250;-72
2021/01/16 04:29:25;;;;;;;7.17;5.70;;;1.10;99.90;;;;;;4962452;28;21058;-72
2021/01/16 04:32:10;;;;;;;8.17;5.70;;;1.00;99.90;;;;;;4966692;28;20684;-72
2021/01/16 04:34:57;;;;;;;7.83;5.63;;;1.00;99.90;;;;;;4972332;28;20600;-72
2021/01/16 04:37:45;;;;;;;7.97;5.87;;;1.00;99.90;;;;;;4982160;28;20733;-72
2021/01/16 04:40:32;;;;;;;6.80;6.03;;;1.00;99.90;;;;;;4966843;28;20632;-72
2021/01/16 04:43:17;;;;;;;7.37;5.93;;;0.90;99.90;;;;;;4969660;28;20709;-72
2021/01/16 04:46:07;;;;;;;7.37;5.53;;;1.00;99.90;;;;;;4973648;28;20788;-72
2021/01/16 04:49:04;;;;;;;7.40;5.90;;;1.10;99.90;;;;;;4975616;28;20676;-72
2021/01/16 04:51:55;;;;;;;7.53;5.97;;;1.10;99.90;;;;;;4968314;28;20776;-72
2021/01/16 04:54:42;;;;;;;6.67;5.03;;;1.10;99.90;;;;;;4967798;28;20743;-72
2021/01/16 04:57:30;;;;;;;8.47;6.13;;;0.90;99.90;;;;;;4974950;28;21239;-72
2021/01/16 05:00:15;;;;;;;7.80;5.77;;;0.70;99.90;;;;;;4964725;28;21277;-72
2021/01/16 05:03:11;;;;;;;7.43;6.00;;;0.70;99.90;;;;;;4966650;28;20637;-72
2021/01/16 05:05:58;;;;;;;7.43;5.47;;;0.90;99.90;;;;;;4967017;28;20624;-72
2021/01/16 05:08:45;;;;;;;7.87;5.70;;;0.80;99.90;;;;;;4980313;28;20992;-72
2021/01/16 05:11:34;;;;;;;8.93;6.23;;;0.80;99.90;;;;;;4961392;28;21390;-72
2021/01/16 05:14:19;;;;;;;8.53;6.70;;;0.80;99.90;;;;;;4986479;28;20592;-72
2021/01/16 05:17:04;;;;;;;7.50;5.60;;;0.80;99.90;;;;;;4964805;28;20676;-72
2021/01/16 05:19:51;;;;;;;7.50;6.00;;;0.80;99.90;;;;;;4969558;28;20680;-72
2021/01/16 05:22:35;;;;;;;9.63;5.93;;;0.80;99.90;;;;;;4971321;28;20581;-72
2021/01/16 05:25:19;;;;;;;8.73;6.10;;;0.90;99.90;;;;;;4982678;28;20644;-72
2021/01/16 05:28:06;;;;;;;8.20;6.23;;;0.90;99.90;;;;;;4980997;28;20662;-72
2021/01/16 05:30:51;;;;;;;7.63;5.73;;;0.90;99.90;;;;;;4966319;28;21065;-72
2021/01/16 05:33:41;;;;;;;7.60;5.77;;;0.90;99.90;;;;;;4962548;28;20597;-72
2021/01/16 05:36:31;;;;;;;7.80;5.83;;;0.90;99.90;;;;;;4959737;28;20720;-72
2021/01/16 05:39:18;;;;;;;7.20;6.07;;;0.80;99.90;;;;;;4976673;28;20648;-71
2021/01/16 05:42:05;;;;;;;7.37;5.87;;;0.80;99.90;;;;;;4966618;28;21147;-72
2021/01/16 05:44:50;;;;;;;7.57;5.70;;;0.80;99.90;;;;;;4967050;28;20699;-72
2021/01/16 05:47:38;;;;;;;8.50;6.47;;;0.80;99.90;;;;;;4975477;28;20684;-72
2021/01/16 05:50:23;;;;;;;7.93;5.60;;;0.80;99.90;;;;;;4985540;28;20628;-72
2021/01/16 05:53:08;;;;;;;6.57;5.50;;;0.80;99.90;;;;;;4967495;28;20628;-72
2021/01/16 05:55:59;;;;;;;5.87;5.13;;;0.90;99.90;;;;;;4971541;28;20744;-72
2021/01/16 05:58:47;;;;;;;7.37;5.83;;;0.80;99.90;;;;;;4961351;28;20653;-72
2021/01/16 06:01:37;;;;;;;6.70;5.53;;;0.90;99.90;;;;;;4969701;28;20773;-72
2021/01/16 06:04:22;;;;;;;6.73;5.70;;;0.90;99.90;;;;;;4973597;28;20641;-72
2021/01/16 06:07:06;;;;;;;6.30;5.47;;;1.00;99.90;;;;;;4971538;28;20684;-72
2021/01/16 06:10:00;;;;;;;8.37;5.80;;;1.10;99.90;;;;;;4963472;28;20644;-72
2021/01/16 06:12:44;;;;;;;7.90;5.57;;;1.10;99.90;;;;;;4977093;28;20625;-72
2021/01/16 06:15:37;;;;;;;8.20;5.73;;;1.10;99.90;;;;;;4967545;28;20617;-72
2021/01/16 06:18:29;;;;;;;8.63;5.90;;;1.10;99.90;;;;;;4981432;28;20651;-72
2021/01/16 06:21:28;;;;;;;6.47;5.40;;;0.90;99.90;;;;;;4961480;28;20664;-72
2021/01/16 06:24:20;;;;;;;9.13;5.87;;;1.00;99.90;;;;;;4973587;28;20735;-72
2021/01/16 06:27:06;;;;;;;7.17;5.50;;;1.00;99.90;;;;;;4968142;28;20717;-72
2021/01/16 06:30:01;;;;;;;8.23;6.00;;;0.90;99.90;;;;;;4967535;28;21673;-72
2021/01/16 06:32:55;;;;;;;8.80;5.77;;;1.00;99.90;;;;;;4980625;28;20593;-72
2021/01/16 06:35:45;;;;;;;7.00;5.43;;;0.90;99.90;;;;;;4968672;28;20621;-72
2021/01/16 06:38:35;;;;;;;8.93;6.17;;;0.90;99.90;;;;;;4977171;28;21212;-72
2021/01/16 06:41:25;;;;;;;6.90;5.50;;;0.60;99.90;;;;;;4962767;28;21177;-72
2021/01/16 06:44:17;;;;;;;7.10;5.80;;;0.90;99.90;;;;;;4976846;28;21220;-71
2021/01/16 06:47:03;;;;;;;6.80;6.10;;;0.90;99.90;;;;;;4989404;28;20629;-72
2021/01/16 06:49:57;;;;;;;8.10;5.60;;;0.90;99.90;;;;;;4963829;28;20996;-71
2021/01/16 06:52:48;;;;;;;5.80;5.00;;;1.00;99.90;;;;;;4981415;28;21323;-71
2021/01/16 06:55:36;;;;;;;6.73;5.83;;;0.90;99.90;;;;;;4985780;28;20659;-71
2021/01/16 06:58:24;;;;;;;6.00;4.77;;;0.90;99.90;;;;;;4977762;28;20918;-71
2021/01/16 07:01:14;;;;;;;7.57;5.57;;;0.90;99.90;;;;;;4982456;28;20647;-71
2021/01/16 07:04:00;;;;;;;7.97;5.40;;;0.80;99.90;;;;;;4966836;28;20631;-72
2021/01/16 07:06:51;;;;;;;6.50;5.30;;;0.80;99.90;;;;;;4956894;28;20657;-72
2021/01/16 07:09:36;;;;;;;7.63;6.00;;;0.80;99.90;;;;;;4928560;23;21247;-68
2021/01/16 07:12:26;;;;;;;7.07;5.77;;;0.80;99.90;;;;;;4931293;28;21122;-68
2021/01/16 07:15:12;;;;;;;6.53;5.47;;;0.70;99.90;;;;;;4923915;28;20606;-68
2021/01/16 07:18:00;;;;;;;8.27;5.57;;;0.70;99.90;;;;;;4917060;28;20624;-66
2021/01/16 07:20:59;;;;;;;7.60;5.83;;;0.60;99.90;;;;;;4892488;28;20647;-68
2021/01/16 07:23:47;;;;;;;9.00;6.10;;;0.60;99.90;;;;;;4881652;29;21306;-66
2021/01/16 07:26:36;;;;;;;7.17;5.83;;;0.60;99.90;;;;;;4881402;29;21260;-68
2021/01/16 07:29:21;;;;;;;5.80;5.13;;;0.60;99.90;;;;;;4863104;28;20717;-65
2021/01/16 07:32:15;;;;;;;7.03;5.70;;;0.50;99.90;;;;;;4898250;29;20596;-68
2021/01/16 07:35:00;;;;;;;8.03;6.30;;;0.50;99.90;;;;;;4899206;29;20767;-68
2021/01/16 07:37:47;;;;;;;7.87;5.70;;;0.60;99.90;;;;;;4919519;28;20730;-68
2021/01/16 07:40:32;;;;;;;8.40;5.93;;;0.50;99.90;;;;;;4898479;29;20960;-68
2021/01/16 07:43:28;;;;;;;8.10;6.00;;;0.60;99.90;;;;;;4916649;28;20744;-68
2021/01/16 07:46:19;;;;;;;6.60;5.77;;;0.50;99.90;;;;;;4895317;29;21048;-68
2021/01/16 07:49:05;;;;;;;7.93;5.93;;;0.50;99.90;;;;;;4904326;29;20725;-67
2021/01/16 07:51:54;;;;;;;8.60;5.80;;;0.50;99.90;;;;;;4826684;29;21209;-68
2021/01/16 07:54:43;;;;;;;7.90;5.43;;;0.40;99.90;;;;;;4843397;29;21441;-68
2021/01/16 07:57:31;;;;;;;7.77;6.27;;;0.40;99.90;;;;;;4896493;29;20615;-67
2021/01/16 08:00:18;;;;;;;8.27;6.73;;;0.40;99.90;;;;;;4905743;28;20663;-68
2021/01/16 08:03:20;;;;;;;10.60;6.37;;;0.40;99.90;;;;;;4902624;28;20611;-68
2021/01/16 08:06:31;;;;;;;8.37;6.27;;;0.40;99.90;;;;;;4866485;29;20632;-68
2021/01/16 08:09:18;;;;;;;8.30;5.90;;;0.40;99.90;;;;;;4914035;28;21047;-67
2021/01/16 08:12:11;;;;;;;8.73;6.60;;;0.40;99.90;;;;;;4849174;29;20635;-68
2021/01/16 08:15:01;;;;;;;7.57;6.00;;;0.50;99.90;;;;;;4906348;28;20768;-70
2021/01/16 08:17:47;;;;;;;8.83;6.40;;;0.50;99.90;;;;;;4917407;28;20611;-68
2021/01/16 08:20:39;;;;;;;8.27;6.23;;;0.60;99.90;;;;;;4897620;29;20627;-67
2021/01/16 08:23:25;;;;;;;8.53;5.90;;;0.60;99.90;;;;;;4843294;29;20619;-68
2021/01/16 08:26:10;;;;;;;8.23;6.80;;;0.70;99.90;;;;;;4894234;29;21253;-66
2021/01/16 08:28:58;;;;;;;7.50;5.87;;;0.80;99.90;;;;;;4920144;28;21228;-68
2021/01/16 08:31:42;;;;;;;8.80;6.00;;;0.90;99.90;;;;;;4894585;29;21305;-68
2021/01/16 08:34:46;;;;;;;6.90;5.90;;;0.90;99.90;;;;;;4855387;29;20635;-68
2021/01/16 08:37:36;;;;;;;7.80;5.83;;;0.90;99.90;;;;;;4897795;29;20643;-68
2021/01/16 08:40:36;;;;;;;7.00;5.90;;;1.00;99.90;;;;;;4906444;28;20655;-68
2021/01/16 08:43:44;;;;;;;7.37;6.23;;;1.10;99.90;;;;;;4919824;28;20608;-68
2021/01/16 08:46:36;;;;;;;7.67;5.67;;;1.00;99.90;;;;;;4896634;29;21234;-70
2021/01/16 08:49:30;;;;;;;8.00;6.00;;;1.00;99.90;;;;;;4917881;28;21055;-71
2021/01/16 08:52:34;;;;;;;6.60;5.70;;;1.00;99.90;;;;;;4854238;29;20598;-68
2021/01/16 08:55:25;;;;;;;7.50;6.10;;;0.80;99.90;;;;;;4911144;29;20616;-68
2021/01/16 08:58:13;;;;;;;6.70;5.80;;;0.90;99.90;;;;;;4897218;29;20660;-66
2021/01/16 09:00:58;;;;;;;8.00;5.10;;;1.00;99.90;;;;;;4913709;28;20637;-67
2021/01/16 09:03:43;;;;;;;5.90;5.23;;;1.00;99.90;;;;;;4892968;29;21174;-67
2021/01/16 09:06:27;;;;;;;7.90;5.50;;;1.10;99.90;;;;;;4907625;29;21082;-68
2021/01/16 09:09:14;;;;;;;6.63;5.10;;;1.10;99.90;;;;;;4850990;29;20734;-71
2021/01/16 09:12:22;;;;;;;5.90;5.17;;;1.10;99.90;;;;;;4900500;29;21217;-69
2021/01/16 09:15:24;;;;;;;6.30;4.80;;;1.20;99.90;;;;;;4844086;29;20602;-69
2021/01/16 09:18:16;;;;;;;7.00;4.97;;;1.10;99.90;;;;;;4895581;29;20614;-72
2021/01/16 09:21:01;;;;;;;5.50;4.77;;;1.20;99.90;;;;;;4840305;28;20796;-71
2021/01/16 09:23:45;;;;;;;6.90;5.10;;;1.30;99.90;;;;;;4890980;29;20992;-73
2021/01/16 09:26:32;;;;;;;6.10;4.90;;;1.40;99.90;;;;;;4907478;28;20635;-72
2021/01/16 09:29:27;;;;;;;6.87;5.07;;;1.40;99.90;;;;;;4906075;28;20663;-71
2021/01/16 09:32:23;;;;;;;6.90;5.80;;;1.60;99.90;;;;;;4931941;28;23565;-72
2021/01/16 09:35:08;;;;;;;6.07;5.40;;;1.60;99.90;;;;;;4920017;28;20659;-72
2021/01/16 09:37:52;;;;;;;6.57;4.87;;;1.50;99.90;;;;;;4886291;29;21737;-73
2021/01/16 09:40:39;;;;;;;6.93;5.83;;;1.50;99.90;;;;;;4897111;29;20651;-72
2021/01/16 09:43:31;;;;;;;5.97;4.80;;;1.50;99.90;;;;;;4914740;28;20614;-72
2021/01/16 09:46:33;;;;;;;5.80;5.20;;;1.60;99.90;;;;;;4838734;29;20651;-72
2021/01/16 09:49:44;;;;;;;6.20;5.30;;;1.60;99.90;;;;;;4920422;28;21252;-72
2021/01/16 09:52:29;;;;;;;5.57;5.00;;;1.70;99.90;;;;;;4917001;29;20629;-72
2021/01/16 09:55:21;;;;;;;8.07;6.47;;;1.70;99.90;;;;;;4902022;29;20711;-73
2021/01/16 09:58:35;;;;;;;7.40;5.83;;;1.70;99.90;;;;;;4852980;28;20624;-75
2021/01/16 10:01:24;;;;;;;6.50;5.20;;;1.80;99.90;;;;;;4838629;28;20643;-74
2021/01/16 10:04:22;;;;;;;8.73;6.13;;;2.00;99.90;;;;;;4891646;29;20635;-74
2021/01/16 10:07:15;;;;;;;7.10;5.87;;;1.90;99.90;;;;;;4895700;29;21524;-73
2021/01/16 10:10:20;;;;;;;7.33;5.80;;;2.00;99.90;;;;;;4904573;28;20662;-70
2021/01/16 10:13:09;;;;;;;7.47;6.20;;;2.00;99.90;;;;;;4894261;29;20603;-77
2021/01/16 10:15:58;;;;;;;7.77;5.83;;;2.10;99.90;;;;;;4922559;28;20599;-77
2021/01/16 10:18:42;;;;;;;6.93;5.33;;;2.20;99.90;;;;;;4907012;29;22288;-69
2021/01/16 10:21:29;;;;;;;16.23;6.23;;;2.10;99.90;;;;;;4908876;28;23616;-70
2021/01/16 10:24:19;;;;;;;6.27;5.50;;;2.30;99.90;;;;;;4901607;28;20631;-71
2021/01/16 10:27:03;;;;;;;7.57;6.40;;;2.20;99.90;;;;;;4887809;29;20687;-71
2021/01/16 10:29:48;;;;;;;8.37;5.63;;;2.20;99.90;;;;;;4896210;29;20651;-71
2021/01/16 10:32:32;;;;;;;8.40;6.10;;;2.20;99.90;;;;;;4866033;29;20631;-73
2021/01/16 10:35:22;;;;;;;7.47;5.70;;;2.30;99.90;;;;;;4903330;29;20971;-73
2021/01/16 10:38:09;;;;;;;7.10;6.33;;;2.20;99.90;;;;;;4910291;29;20748;-72
2021/01/16 10:40:54;;;;;;;9.07;6.60;;;2.20;99.90;;;;;;4908921;29;20634;-72
2021/01/16 10:43:39;;;;;;;7.57;6.13;;;2.20;99.90;;;;;;4910191;28;20642;-71
2021/01/16 10:46:30;;;;;;;8.57;6.07;;;2.40;99.90;;;;;;4900175;28;20646;-71
2021/01/16 10:49:23;;;;;;;7.77;6.00;;;2.40;99.90;;;;;;4844181;28;20670;-73
2021/01/16 10:52:08;;;;;;;7.43;6.10;;;2.20;99.90;;;;;;4897581;29;20841;-71
2021/01/16 10:55:00;;;;;;;9.33;6.73;;;2.20;99.90;;;;;;4919798;29;20599;-74
2021/01/16 10:57:49;;;;;;;8.70;6.70;;;2.20;99.90;;;;;;4911397;29;20614;-71
2021/01/16 11:00:43;;;;;;;8.13;6.47;;;2.20;99.90;;;;;;4897729;29;21237;-71
2021/01/16 11:03:30;;;;;;;8.33;5.70;;;2.20;99.90;;;;;;4914456;29;20631;-71
2021/01/16 11:06:19;;;;;;;8.43;5.90;;;2.30;99.90;;;;;;4900431;29;20984;-72
2021/01/16 11:09:32;;;;;;;8.10;6.30;;;2.30;99.90;;;;;;4899470;29;20751;-71
2021/01/16 11:12:25;;;;;;;6.50;5.73;;;2.40;99.90;;;;;;4867890;29;20710;-71
2021/01/16 11:15:19;;;;;;;8.40;6.87;;;2.50;99.90;;;;;;4923734;29;20726;-72
2021/01/16 11:18:03;;;;;;;7.20;5.90;;;2.50;99.90;;;;;;4847876;29;20965;-71
2021/01/16 11:20:58;;;;;;;9.30;7.40;;;2.50;99.90;;;;;;4910544;28;20639;-71
2021/01/16 11:23:45;;;;;;;9.33;7.20;;;2.50;99.90;;;;;;4897871;29;20630;-71
2021/01/16 11:26:46;;;;;;;7.43;5.70;;;2.60;99.90;;;;;;4900840;29;21280;-71
2021/01/16 11:29:46;;;;;;;7.87;5.80;;;2.70;99.90;;;;;;4912715;28;20765;-74
2021/01/16 11:32:37;;;;;;;8.37;6.00;;;2.70;99.90;;;;;;4865151;29;20654;-70
2021/01/16 11:35:38;;;;;;;7.90;5.70;;;2.70;99.90;;;;;;4900803;29;20747;-71
2021/01/16 11:38:39;;;;;;;8.63;6.27;;;2.90;99.90;;;;;;4906504;29;20643;-71
2021/01/16 11:41:52;;;;;;;8.67;6.10;;;3.00;99.90;;;;;;4899754;29;21007;-71
2021/01/16 11:44:50;;;;;;;7.67;6.80;;;3.10;99.90;;;;;;4894715;29;20631;-71
2021/01/16 11:47:51;;;;;;;7.63;6.10;;;3.10;99.90;;;;;;4899835;29;21248;-75
2021/01/16 11:50:37;;;;;;;7.70;6.47;;;3.10;99.90;;;;;;4888571;29;20786;-72
2021/01/16 11:53:22;;;;;;;7.97;6.40;;;3.00;99.90;;;;;;4896418;29;20623;-73
2021/01/16 11:56:07;;;;;;;6.67;5.70;;;2.90;99.90;;;;;;4835252;29;20588;-71
2021/01/16 11:58:52;;;;;;;8.83;5.83;;;2.80;99.90;;;;;;4906585;29;21284;-70
2021/01/16 12:01:38;;;;;;;8.13;6.73;;;2.80;99.90;;;;;;4843704;29;20728;-71
2021/01/16 12:04:23;;;;;;;7.97;6.13;;;2.80;99.90;;;;;;4898701;29;20658;-72
2021/01/16 12:07:08;;;;;;;8.43;6.70;;;2.70;99.90;;;;;;4920141;28;21054;-70
2021/01/16 12:09:55;;;;;;;6.30;5.30;;;2.70;99.90;;;;;;4924556;28;21297;-71
2021/01/16 12:12:40;;;;;;;8.40;6.13;;;2.80;99.90;;;;;;4901915;29;20622;-71
2021/01/16 12:15:26;;;;;;;7.33;5.90;;;2.80;99.90;;;;;;4915543;28;20744;-72
2021/01/16 12:18:12;;;;;;;7.77;5.77;;;2.80;99.90;;;;;;4904596;29;20611;-71
2021/01/16 12:21:01;;;;;;;6.67;5.60;;;2.70;99.90;;;;;;4920190;28;20638;-73
2021/01/16 12:23:46;;;;;;;8.40;5.57;;;2.80;99.90;;;;;;4912088;29;21010;-71
2021/01/16 12:26:35;;;;;;;7.17;5.47;;;2.90;99.90;;;;;;4899773;29;21218;-71
2021/01/16 12:29:29;;;;;;;8.20;6.50;;;3.00;99.90;;;;;;4915893;28;20697;-71
2021/01/16 12:32:14;;;;;;;6.20;5.37;;;3.00;99.90;;;;;;4859636;29;20607;-72
2021/01/16 12:34:59;;;;;;;7.60;6.50;;;3.20;99.90;;;;;;4911287;28;20668;-72
2021/01/16 12:37:43;;;;;;;7.90;6.20;;;3.30;99.90;;;;;;4969460;28;20602;-73
2021/01/16 12:40:28;;;;;;;7.10;5.30;;;3.30;99.90;;;;;;4912803;29;20659;-73
2021/01/16 12:43:13;;;;;;;8.03;6.03;;;3.20;99.90;;;;;;4901325;29;20926;-74
2021/01/16 12:46:05;;;;;;;6.00;5.10;;;3.50;99.90;;;;;;4849188;29;20603;-71
2021/01/16 12:48:51;;;;;;;7.10;5.97;;;3.60;99.90;;;;;;4913247;28;21213;-71
2021/01/16 12:51:35;;;;;;;7.07;5.50;;;3.70;99.90;;;;;;4903808;29;20981;-71
2021/01/16 12:54:20;;;;;;;6.67;5.33;;;3.90;99.90;;;;;;4911935;28;21046;-71
2021/01/16 12:57:07;;;;;;;5.50;4.90;;;4.00;99.90;;;;;;4903818;28;20599;-71
2021/01/16 12:59:52;;;;;;;5.53;5.03;;;4.10;99.90;;;;;;4912652;28;21006;-71
2021/01/16 13:02:37;;;;;;;7.30;5.37;;;4.00;99.90;;;;;;4890417;29;20796;-74
2021/01/16 13:05:25;;;;;;;6.90;5.90;;;4.10;99.90;;;;;;4896880;29;20690;-74
2021/01/16 13:08:11;;;;;;;7.33;5.40;;;4.10;99.90;;;;;;4897215;29;21100;-74
2021/01/16 13:11:00;;;;;;;7.97;6.10;;;4.00;99.90;;;;;;4979281;23;20786;-79
2021/01/16 13:13:56;;;;;;;5.37;4.87;;;3.90;99.90;;;;;;5035115;28;20598;-80
2021/01/16 13:16:46;;;;;;;5.20;4.70;;;3.80;99.90;;;;;;5004460;28;20627;-76
2021/01/16 13:19:37;;;;;;;6.53;5.73;;;3.70;99.90;;;;;;5020026;28;20614;-77
2021/01/16 13:22:23;;;;;;;6.40;5.17;;;3.70;99.90;;;;;;5015919;28;20595;-76
2021/01/16 13:25:09;;;;;;;7.00;6.30;;;3.60;99.90;;;;;;4993319;28;21400;-75
2021/01/16 13:28:02;;;;;;;7.50;6.10;;;3.50;99.90;;;;;;4994460;28;20650;-75
2021/01/16 13:30:48;;;;;;;7.80;6.37;;;3.40;99.90;;;;;;4978810;28;20662;-77
2021/01/16 13:33:33;;;;;;;7.13;5.80;;;3.30;99.90;;;;;;4998348;28;20704;-73
2021/01/16 13:36:19;;;;;;;7.60;6.60;;;3.30;99.90;;;;;;5003681;28;21118;-74
2021/01/16 13:39:15;;;;;;;6.73;6.03;;;3.30;99.90;;;;;;4991640;28;20726;-77
2021/01/16 13:42:01;;;;;;;8.10;6.20;;;3.40;99.90;;;;;;5009218;28;21128;-76
2021/01/16 13:44:57;;;;;;;7.50;5.80;;;3.30;99.90;;;;;;4991669;28;20611;-77
2021/01/16 13:47:42;;;;;;;10.93;6.17;;;3.30;99.90;;;;;;5005138;28;20651;-86
2021/01/16 13:50:33;;;;;;;10.27;6.43;;;3.30;99.90;;;;;;5016855;28;20727;-83
2021/01/16 13:53:17;;;;;;;7.85;6.60;;;3.30;99.90;;;;;;5006929;28;20712;-86
2021/01/16 13:56:03;;;;;;;7.33;6.47;;;3.20;99.90;;;;;;5018221;28;20323;-83
2021/01/16 13:58:48;;;;;;;8.53;6.77;;;3.30;99.90;;;;;;5000953;28;20608;-77
2021/01/16 14:01:37;;;;;;;6.70;6.00;;;3.30;99.90;;;;;;4999083;28;20667;-78
2021/01/16 14:04:22;;;;;;;7.97;5.63;;;3.30;99.90;;;;;;5008525;28;20587;-78
2021/01/16 14:07:07;;;;;;;9.13;6.40;;;3.20;99.90;;;;;;4999441;28;20623;-80
2021/01/16 14:09:51;;;;;;;7.73;6.20;;;3.20;99.90;;;;;;4996532;28;20710;-80
2021/01/16 14:12:36;;;;;;;9.53;7.10;;;3.10;99.90;;;;;;5016944;28;21386;-78
2021/01/16 14:15:21;;;;;;;17.80;13.80;;;3.10;99.90;;;;;;5004526;28;22637;-83
2021/01/16 14:18:05;;;;;;;10.37;7.87;;;3.10;99.90;;;;;;4990636;28;20659;-84
2021/01/16 14:20:53;;;;;;;8.97;7.17;;;3.20;99.90;;;;;;4998907;28;20655;-81
2021/01/16 14:23:39;;;;;;;10.43;8.77;;;3.20;99.90;;;;;;5005334;28;20685;-77
2021/01/16 14:26:26;;;;;;;11.23;8.57;;;3.10;99.90;;;;;;4986436;28;20650;-77
2021/01/16 14:29:13;;;;;;;14.60;12.43;;;3.10;99.90;;;;;;4996830;28;20599;-79
2021/01/16 14:31:58;;;;;;;13.47;9.70;;;3.00;99.90;;;;;;5011475;28;20655;-81
2021/01/16 14:34:43;;;;;;;12.07;9.33;;;3.00;99.90;;;;;;5008176;28;20580;-77
2021/01/16 14:37:30;;;;;;;11.27;8.77;;;3.00;99.90;;;;;;4997280;28;20595;-79
2021/01/16 14:40:28;;;;;;;11.93;8.33;;;3.00;99.90;;;;;;5008274;28;20643;-77
2021/01/16 14:43:16;;;;;;;10.70;7.90;;;2.90;99.90;;;;;;5014720;28;20599;-76
2021/01/16 14:46:02;;;;;;;10.33;8.10;;;2.90;99.90;;;;;;5011860;28;20612;-78
2021/01/16 14:48:56;;;;;;;13.20;9.60;;;3.10;99.90;;;;;;4998722;28;20607;-75
2021/01/16 14:51:40;;;;;;;12.03;8.17;;;2.90;99.90;;;;;;5014381;28;20647;-77